sensor_id;sensor_type;location;lat;lon;timestamp;P1;durP1;ratioP1;P2;durP2;ratioP2
68614;SDS011;55593;51.994;5.882;2024-02-26T00:01:48;5.55;;;3.25;;
68614;SDS011;55593;51.994;5.882;2024-02-26T00:04:18;3.78;;;2.60;;
68614;SDS011;55593;51.994;5.882;2024-02-26T00:06:50;5.03;;;2.80;;
68614;SDS011;55593;51.994;5.882;2024-02-26T00:09:20;4.65;;;2.78;;
68614;SDS011;55593;51.994;5.882;2024-02-26T00:11:49;4.55;;;2.97;;
68614;SDS011;55593;51.994;5.882;2024-02-26T00:14:18;5.00;;;3.10;;
68614;SDS011;55593;51.994;5.882;2024-02-26T00:16:47;5.78;;;3.85;;
68614;SDS011;55593;51.994;5.882;2024-02-26T00:19:16;5.03;;;3.17;;
68614;SDS011;55593;51.994;5.882;2024-02-26T00:21:46;4.45;;;3.15;;
68614;SDS011;55593;51.994;5.882;2024-02-26T00:24:17;4.57;;;3.25;;
68614;SDS011;55593;51.994;5.882;2024-02-26T00:26:46;8.55;;;3.80;;
68614;SDS011;55593;51.994;5.882;2024-02-26T00:29:18;5.95;;;3.17;;
68614;SDS011;55593;51.994;5.882;2024-02-26T00:31:48;7.13;;;3.33;;
68614;SDS011;55593;51.994;5.882;2024-02-26T00:34:17;4.85;;;2.95;;
68614;SDS011;55593;51.994;5.882;2024-02-26T00:36:46;8.57;;;4.07;;
68614;SDS011;55593;51.994;5.882;2024-02-26T00:39:18;5.00;;;3.30;;
68614;SDS011;55593;51.994;5.882;2024-02-26T00:41:47;9.05;;;3.40;;
68614;SDS011;55593;51.994;5.882;2024-02-26T00:44:17;5.85;;;3.28;;
68614;SDS011;55593;51.994;5.882;2024-02-26T00:46:46;7.13;;;3.90;;
68614;SDS011;55593;51.994;5.882;2024-02-26T00:49:15;6.43;;;3.42;;
68614;SDS011;55593;51.994;5.882;2024-02-26T00:51:44;7.00;;;3.63;;
68614;SDS011;55593;51.994;5.882;2024-02-26T00:54:14;7.22;;;3.90;;
68614;SDS011;55593;51.994;5.882;2024-02-26T00:56:45;5.65;;;3.45;;
68614;SDS011;55593;51.994;5.882;2024-02-26T00:59:14;4.70;;;3.50;;
68614;SDS011;55593;51.994;5.882;2024-02-26T01:01:44;7.28;;;4.15;;
68614;SDS011;55593;51.994;5.882;2024-02-26T01:04:13;6.38;;;4.13;;
68614;SDS011;55593;51.994;5.882;2024-02-26T01:06:42;6.68;;;4.05;;
68614;SDS011;55593;51.994;5.882;2024-02-26T01:09:11;5.75;;;4.07;;
68614;SDS011;55593;51.994;5.882;2024-02-26T01:11:40;7.68;;;4.20;;
68614;SDS011;55593;51.994;5.882;2024-02-26T01:14:12;7.20;;;4.65;;
68614;SDS011;55593;51.994;5.882;2024-02-26T01:16:41;6.10;;;4.20;;
68614;SDS011;55593;51.994;5.882;2024-02-26T01:19:10;6.43;;;4.38;;
68614;SDS011;55593;51.994;5.882;2024-02-26T01:21:39;6.50;;;4.55;;
68614;SDS011;55593;51.994;5.882;2024-02-26T01:24:08;6.28;;;4.43;;
68614;SDS011;55593;51.994;5.882;2024-02-26T01:26:37;8.32;;;4.10;;
68614;SDS011;55593;51.994;5.882;2024-02-26T01:29:06;9.32;;;4.70;;
68614;SDS011;55593;51.994;5.882;2024-02-26T01:31:38;8.85;;;4.18;;
68614;SDS011;55593;51.994;5.882;2024-02-26T01:34:07;7.35;;;4.18;;
68614;SDS011;55593;51.994;5.882;2024-02-26T01:36:36;6.75;;;4.50;;
68614;SDS011;55593;51.994;5.882;2024-02-26T01:39:05;7.60;;;4.72;;
68614;SDS011;55593;51.994;5.882;2024-02-26T01:41:37;6.85;;;4.50;;
68614;SDS011;55593;51.994;5.882;2024-02-26T01:44:06;9.10;;;4.70;;
68614;SDS011;55593;51.994;5.882;2024-02-26T01:46:39;7.10;;;4.75;;
68614;SDS011;55593;51.994;5.882;2024-02-26T01:49:08;8.93;;;4.93;;
68614;SDS011;55593;51.994;5.882;2024-02-26T01:51:40;7.05;;;4.85;;
68614;SDS011;55593;51.994;5.882;2024-02-26T01:54:10;8.10;;;4.90;;
68614;SDS011;55593;51.994;5.882;2024-02-26T01:56:39;8.60;;;4.95;;
68614;SDS011;55593;51.994;5.882;2024-02-26T01:59:06;6.07;;;5.05;;
68614;SDS011;55593;51.994;5.882;2024-02-26T02:01:39;8.65;;;4.97;;
68614;SDS011;55593;51.994;5.882;2024-02-26T02:04:13;6.18;;;5.03;;
68614;SDS011;55593;51.994;5.882;2024-02-26T02:06:44;8.95;;;5.28;;
68614;SDS011;55593;51.994;5.882;2024-02-26T02:09:14;8.63;;;5.13;;
68614;SDS011;55593;51.994;5.882;2024-02-26T02:11:43;6.80;;;4.88;;
68614;SDS011;55593;51.994;5.882;2024-02-26T02:14:14;7.05;;;4.38;;
68614;SDS011;55593;51.994;5.882;2024-02-26T02:16:47;5.88;;;4.38;;
68614;SDS011;55593;51.994;5.882;2024-02-26T02:19:16;7.60;;;4.15;;
68614;SDS011;55593;51.994;5.882;2024-02-26T02:21:48;6.57;;;4.38;;
68614;SDS011;55593;51.994;5.882;2024-02-26T02:24:17;7.32;;;4.57;;
68614;SDS011;55593;51.994;5.882;2024-02-26T02:26:46;8.07;;;4.90;;
68614;SDS011;55593;51.994;5.882;2024-02-26T02:29:15;6.95;;;4.20;;
68614;SDS011;55593;51.994;5.882;2024-02-26T02:31:44;6.80;;;4.25;;
68614;SDS011;55593;51.994;5.882;2024-02-26T02:34:13;7.40;;;4.15;;
68614;SDS011;55593;51.994;5.882;2024-02-26T02:36:52;6.25;;;4.20;;
68614;SDS011;55593;51.994;5.882;2024-02-26T02:39:21;7.20;;;4.47;;
68614;SDS011;55593;51.994;5.882;2024-02-26T02:41:50;7.57;;;4.10;;
68614;SDS011;55593;51.994;5.882;2024-02-26T02:44:19;6.20;;;4.15;;
68614;SDS011;55593;51.994;5.882;2024-02-26T02:46:48;8.93;;;4.55;;
68614;SDS011;55593;51.994;5.882;2024-02-26T02:49:19;5.43;;;3.83;;
68614;SDS011;55593;51.994;5.882;2024-02-26T02:51:52;8.15;;;4.60;;
68614;SDS011;55593;51.994;5.882;2024-02-26T02:54:23;4.88;;;3.92;;
68614;SDS011;55593;51.994;5.882;2024-02-26T02:56:52;5.45;;;4.20;;
68614;SDS011;55593;51.994;5.882;2024-02-26T02:59:21;9.70;;;4.35;;
68614;SDS011;55593;51.994;5.882;2024-02-26T03:01:50;8.00;;;4.40;;
68614;SDS011;55593;51.994;5.882;2024-02-26T03:04:19;6.55;;;4.07;;
68614;SDS011;55593;51.994;5.882;2024-02-26T03:06:48;6.32;;;4.18;;
68614;SDS011;55593;51.994;5.882;2024-02-26T03:09:20;5.75;;;4.00;;
68614;SDS011;55593;51.994;5.882;2024-02-26T03:11:49;6.32;;;3.92;;
68614;SDS011;55593;51.994;5.882;2024-02-26T03:14:19;6.05;;;4.00;;
68614;SDS011;55593;51.994;5.882;2024-02-26T03:16:48;4.65;;;3.55;;
68614;SDS011;55593;51.994;5.882;2024-02-26T03:19:17;5.80;;;4.10;;
68614;SDS011;55593;51.994;5.882;2024-02-26T03:21:46;6.75;;;4.28;;
68614;SDS011;55593;51.994;5.882;2024-02-26T03:24:18;6.40;;;4.05;;
68614;SDS011;55593;51.994;5.882;2024-02-26T03:26:48;10.15;;;4.63;;
68614;SDS011;55593;51.994;5.882;2024-02-26T03:29:17;6.13;;;4.70;;
68614;SDS011;55593;51.994;5.882;2024-02-26T03:31:46;7.30;;;4.85;;
68614;SDS011;55593;51.994;5.882;2024-02-26T03:34:16;7.20;;;4.90;;
68614;SDS011;55593;51.994;5.882;2024-02-26T03:36:45;6.57;;;5.03;;
68614;SDS011;55593;51.994;5.882;2024-02-26T03:39:14;6.63;;;4.47;;
68614;SDS011;55593;51.994;5.882;2024-02-26T03:41:46;6.78;;;4.82;;
68614;SDS011;55593;51.994;5.882;2024-02-26T03:44:13;6.65;;;4.68;;
68614;SDS011;55593;51.994;5.882;2024-02-26T03:46:42;8.93;;;5.05;;
68614;SDS011;55593;51.994;5.882;2024-02-26T03:49:11;7.43;;;5.50;;
68614;SDS011;55593;51.994;5.882;2024-02-26T03:51:41;7.13;;;5.68;;
68614;SDS011;55593;51.994;5.882;2024-02-26T03:54:10;8.52;;;5.60;;
68614;SDS011;55593;51.994;5.882;2024-02-26T03:56:39;6.88;;;5.78;;
68614;SDS011;55593;51.994;5.882;2024-02-26T03:59:11;8.18;;;5.20;;
68614;SDS011;55593;51.994;5.882;2024-02-26T04:01:44;7.55;;;5.78;;
68614;SDS011;55593;51.994;5.882;2024-02-26T04:04:13;8.48;;;5.75;;
68614;SDS011;55593;51.994;5.882;2024-02-26T04:06:44;8.20;;;5.88;;
68614;SDS011;55593;51.994;5.882;2024-02-26T04:09:13;7.55;;;6.00;;
68614;SDS011;55593;51.994;5.882;2024-02-26T04:11:42;7.80;;;6.00;;
68614;SDS011;55593;51.994;5.882;2024-02-26T04:14:14;7.95;;;5.80;;
68614;SDS011;55593;51.994;5.882;2024-02-26T04:16:43;8.98;;;5.50;;
68614;SDS011;55593;51.994;5.882;2024-02-26T04:19:17;8.07;;;6.30;;
68614;SDS011;55593;51.994;5.882;2024-02-26T04:21:46;7.57;;;6.25;;
68614;SDS011;55593;51.994;5.882;2024-02-26T04:24:15;11.32;;;6.35;;
68614;SDS011;55593;51.994;5.882;2024-02-26T04:26:44;7.53;;;6.10;;
68614;SDS011;55593;51.994;5.882;2024-02-26T04:29:18;9.05;;;7.00;;
68614;SDS011;55593;51.994;5.882;2024-02-26T04:31:47;8.80;;;6.72;;
68614;SDS011;55593;51.994;5.882;2024-02-26T04:34:16;8.65;;;6.38;;
68614;SDS011;55593;51.994;5.882;2024-02-26T04:36:45;10.65;;;7.10;;
68614;SDS011;55593;51.994;5.882;2024-02-26T04:39:14;13.20;;;7.40;;
68614;SDS011;55593;51.994;5.882;2024-02-26T04:41:43;10.23;;;7.40;;
68614;SDS011;55593;51.994;5.882;2024-02-26T04:44:12;13.07;;;7.25;;
68614;SDS011;55593;51.994;5.882;2024-02-26T04:46:44;9.55;;;7.05;;
68614;SDS011;55593;51.994;5.882;2024-02-26T04:49:13;11.63;;;6.97;;
68614;SDS011;55593;51.994;5.882;2024-02-26T04:51:42;9.57;;;7.25;;
68614;SDS011;55593;51.994;5.882;2024-02-26T04:54:13;8.60;;;7.00;;
68614;SDS011;55593;51.994;5.882;2024-02-26T04:56:43;9.35;;;7.38;;
68614;SDS011;55593;51.994;5.882;2024-02-26T04:59:12;9.35;;;7.35;;
68614;SDS011;55593;51.994;5.882;2024-02-26T05:01:43;8.77;;;7.07;;
68614;SDS011;55593;51.994;5.882;2024-02-26T05:04:13;13.27;;;7.70;;
68614;SDS011;55593;51.994;5.882;2024-02-26T05:06:42;9.23;;;7.57;;
68614;SDS011;55593;51.994;5.882;2024-02-26T05:09:11;13.63;;;7.88;;
68614;SDS011;55593;51.994;5.882;2024-02-26T05:11:40;9.55;;;7.63;;
68614;SDS011;55593;51.994;5.882;2024-02-26T05:14:10;10.65;;;6.88;;
68614;SDS011;55593;51.994;5.882;2024-02-26T05:16:39;9.30;;;7.80;;
68614;SDS011;55593;51.994;5.882;2024-02-26T05:19:11;9.80;;;7.32;;
68614;SDS011;55593;51.994;5.882;2024-02-26T05:21:40;10.48;;;8.63;;
68614;SDS011;55593;51.994;5.882;2024-02-26T05:24:10;11.13;;;8.35;;
68614;SDS011;55593;51.994;5.882;2024-02-26T05:26:41;10.35;;;8.07;;
68614;SDS011;55593;51.994;5.882;2024-02-26T05:29:10;11.65;;;8.07;;
68614;SDS011;55593;51.994;5.882;2024-02-26T05:31:41;10.40;;;8.18;;
68614;SDS011;55593;51.994;5.882;2024-02-26T05:34:13;11.70;;;8.52;;
68614;SDS011;55593;51.994;5.882;2024-02-26T05:36:42;10.82;;;8.10;;
68614;SDS011;55593;51.994;5.882;2024-02-26T05:39:11;11.20;;;7.78;;
68614;SDS011;55593;51.994;5.882;2024-02-26T05:41:38;12.63;;;8.70;;
68614;SDS011;55593;51.994;5.882;2024-02-26T05:44:09;9.90;;;7.57;;
68614;SDS011;55593;51.994;5.882;2024-02-26T05:46:40;11.35;;;7.80;;
68614;SDS011;55593;51.994;5.882;2024-02-26T05:49:09;10.23;;;8.13;;
68614;SDS011;55593;51.994;5.882;2024-02-26T05:51:41;10.18;;;7.47;;
68614;SDS011;55593;51.994;5.882;2024-02-26T05:54:10;12.70;;;7.85;;
68614;SDS011;55593;51.994;5.882;2024-02-26T05:56:39;11.27;;;8.18;;
68614;SDS011;55593;51.994;5.882;2024-02-26T05:59:08;9.18;;;7.72;;
68614;SDS011;55593;51.994;5.882;2024-02-26T06:01:38;11.30;;;8.35;;
68614;SDS011;55593;51.994;5.882;2024-02-26T06:04:07;10.00;;;7.65;;
68614;SDS011;55593;51.994;5.882;2024-02-26T06:06:36;9.00;;;6.95;;
68614;SDS011;55593;51.994;5.882;2024-02-26T06:09:07;10.82;;;7.47;;
68614;SDS011;55593;51.994;5.882;2024-02-26T06:11:37;10.43;;;7.90;;
68614;SDS011;55593;51.994;5.882;2024-02-26T06:14:06;12.48;;;7.57;;
68614;SDS011;55593;51.994;5.882;2024-02-26T06:16:35;9.80;;;6.60;;
68614;SDS011;55593;51.994;5.882;2024-02-26T06:19:04;9.20;;;6.93;;
68614;SDS011;55593;51.994;5.882;2024-02-26T06:21:34;9.85;;;7.03;;
68614;SDS011;55593;51.994;5.882;2024-02-26T06:24:03;9.80;;;7.47;;
68614;SDS011;55593;51.994;5.882;2024-02-26T06:26:35;8.75;;;7.10;;
68614;SDS011;55593;51.994;5.882;2024-02-26T06:29:04;11.00;;;7.00;;
68614;SDS011;55593;51.994;5.882;2024-02-26T06:31:33;9.80;;;6.95;;
68614;SDS011;55593;51.994;5.882;2024-02-26T06:34:03;10.63;;;7.85;;
68614;SDS011;55593;51.994;5.882;2024-02-26T06:36:32;11.57;;;7.38;;
68614;SDS011;55593;51.994;5.882;2024-02-26T06:39:01;10.63;;;7.45;;
68614;SDS011;55593;51.994;5.882;2024-02-26T06:41:31;9.98;;;7.32;;
68614;SDS011;55593;51.994;5.882;2024-02-26T06:44:03;8.40;;;6.95;;
68614;SDS011;55593;51.994;5.882;2024-02-26T06:46:32;9.77;;;7.25;;
68614;SDS011;55593;51.994;5.882;2024-02-26T06:49:01;11.77;;;7.57;;
68614;SDS011;55593;51.994;5.882;2024-02-26T06:51:31;11.55;;;7.57;;
68614;SDS011;55593;51.994;5.882;2024-02-26T06:54:00;18.23;;;9.40;;
68614;SDS011;55593;51.994;5.882;2024-02-26T06:56:29;11.80;;;9.35;;
68614;SDS011;55593;51.994;5.882;2024-02-26T06:58:58;11.48;;;9.07;;
68614;SDS011;55593;51.994;5.882;2024-02-26T07:01:30;11.25;;;8.77;;
68614;SDS011;55593;51.994;5.882;2024-02-26T07:03:59;11.75;;;8.98;;
68614;SDS011;55593;51.994;5.882;2024-02-26T07:06:28;13.30;;;9.15;;
68614;SDS011;55593;51.994;5.882;2024-02-26T07:08:57;15.15;;;9.52;;
68614;SDS011;55593;51.994;5.882;2024-02-26T07:11:26;12.90;;;9.45;;
68614;SDS011;55593;51.994;5.882;2024-02-26T07:13:55;12.18;;;8.93;;
68614;SDS011;55593;51.994;5.882;2024-02-26T07:16:24;14.52;;;10.75;;
68614;SDS011;55593;51.994;5.882;2024-02-26T07:18:56;14.70;;;10.82;;
68614;SDS011;55593;51.994;5.882;2024-02-26T07:21:25;17.33;;;11.13;;
68614;SDS011;55593;51.994;5.882;2024-02-26T07:23:55;15.20;;;11.32;;
68614;SDS011;55593;51.994;5.882;2024-02-26T07:26:24;20.40;;;11.68;;
68614;SDS011;55593;51.994;5.882;2024-02-26T07:28:55;15.55;;;11.70;;
68614;SDS011;55593;51.994;5.882;2024-02-26T07:31:25;16.38;;;12.68;;
68614;SDS011;55593;51.994;5.882;2024-02-26T07:33:57;17.42;;;11.65;;
68614;SDS011;55593;51.994;5.882;2024-02-26T07:36:26;16.50;;;13.15;;
68614;SDS011;55593;51.994;5.882;2024-02-26T07:38:55;19.25;;;12.70;;
68614;SDS011;55593;51.994;5.882;2024-02-26T07:41:25;20.25;;;14.55;;
68614;SDS011;55593;51.994;5.882;2024-02-26T07:43:54;22.25;;;14.85;;
68614;SDS011;55593;51.994;5.882;2024-02-26T07:46:23;20.00;;;13.57;;
68614;SDS011;55593;51.994;5.882;2024-02-26T07:48:52;23.10;;;13.40;;
68614;SDS011;55593;51.994;5.882;2024-02-26T07:51:24;20.80;;;14.85;;
68614;SDS011;55593;51.994;5.882;2024-02-26T07:53:53;17.77;;;13.13;;
68614;SDS011;55593;51.994;5.882;2024-02-26T07:56:22;23.75;;;15.52;;
68614;SDS011;55593;51.994;5.882;2024-02-26T07:58:51;20.15;;;14.35;;
68614;SDS011;55593;51.994;5.882;2024-02-26T08:01:20;22.35;;;15.82;;
68614;SDS011;55593;51.994;5.882;2024-02-26T08:03:50;22.58;;;16.15;;
68614;SDS011;55593;51.994;5.882;2024-02-26T08:06:19;21.65;;;15.00;;
68614;SDS011;55593;51.994;5.882;2024-02-26T08:08:51;25.90;;;15.45;;
68614;SDS011;55593;51.994;5.882;2024-02-26T08:11:20;20.05;;;13.95;;
68614;SDS011;55593;51.994;5.882;2024-02-26T08:13:49;21.42;;;15.05;;
68614;SDS011;55593;51.994;5.882;2024-02-26T08:16:18;26.90;;;15.48;;
68614;SDS011;55593;51.994;5.882;2024-02-26T08:18:47;23.58;;;15.77;;
68614;SDS011;55593;51.994;5.882;2024-02-26T08:21:16;24.27;;;15.50;;
68614;SDS011;55593;51.994;5.882;2024-02-26T08:23:45;21.63;;;14.32;;
68614;SDS011;55593;51.994;5.882;2024-02-26T08:26:17;21.75;;;14.50;;
68614;SDS011;55593;51.994;5.882;2024-02-26T08:28:48;22.50;;;14.50;;
68614;SDS011;55593;51.994;5.882;2024-02-26T08:31:17;27.35;;;17.00;;
68614;SDS011;55593;51.994;5.882;2024-02-26T08:33:46;24.90;;;15.88;;
68614;SDS011;55593;51.994;5.882;2024-02-26T08:36:16;24.48;;;15.70;;
68614;SDS011;55593;51.994;5.882;2024-02-26T08:38:45;28.63;;;16.55;;
68614;SDS011;55593;51.994;5.882;2024-02-26T08:41:16;26.15;;;16.40;;
68614;SDS011;55593;51.994;5.882;2024-02-26T08:43:45;25.40;;;16.33;;
68614;SDS011;55593;51.994;5.882;2024-02-26T08:46:15;25.67;;;16.05;;
68614;SDS011;55593;51.994;5.882;2024-02-26T08:48:44;31.20;;;17.98;;
68614;SDS011;55593;51.994;5.882;2024-02-26T08:51:13;32.47;;;18.23;;
68614;SDS011;55593;51.994;5.882;2024-02-26T08:53:42;27.35;;;15.93;;
68614;SDS011;55593;51.994;5.882;2024-02-26T08:56:11;32.75;;;18.52;;
68614;SDS011;55593;51.994;5.882;2024-02-26T08:58:45;30.25;;;17.08;;
68614;SDS011;55593;51.994;5.882;2024-02-26T09:01:16;32.03;;;18.27;;
68614;SDS011;55593;51.994;5.882;2024-02-26T09:03:46;30.88;;;18.73;;
68614;SDS011;55593;51.994;5.882;2024-02-26T09:06:15;29.20;;;17.75;;
68614;SDS011;55593;51.994;5.882;2024-02-26T09:08:44;31.25;;;17.45;;
68614;SDS011;55593;51.994;5.882;2024-02-26T09:11:14;36.53;;;20.27;;
68614;SDS011;55593;51.994;5.882;2024-02-26T09:13:45;31.17;;;17.63;;
68614;SDS011;55593;51.994;5.882;2024-02-26T09:16:15;37.03;;;19.42;;
68614;SDS011;55593;51.994;5.882;2024-02-26T09:18:44;33.25;;;18.13;;
68614;SDS011;55593;51.994;5.882;2024-02-26T09:21:13;30.63;;;17.27;;
68614;SDS011;55593;51.994;5.882;2024-02-26T09:23:48;32.13;;;17.97;;
68614;SDS011;55593;51.994;5.882;2024-02-26T09:26:18;31.70;;;17.25;;
68614;SDS011;55593;51.994;5.882;2024-02-26T09:28:49;31.75;;;17.40;;
68614;SDS011;55593;51.994;5.882;2024-02-26T09:31:18;34.85;;;17.20;;
68614;SDS011;55593;51.994;5.882;2024-02-26T09:33:51;38.17;;;19.85;;
68614;SDS011;55593;51.994;5.882;2024-02-26T09:36:20;29.05;;;17.00;;
68614;SDS011;55593;51.994;5.882;2024-02-26T09:38:49;32.83;;;18.17;;
68614;SDS011;55593;51.994;5.882;2024-02-26T09:41:18;31.50;;;18.08;;
68614;SDS011;55593;51.994;5.882;2024-02-26T09:43:50;35.67;;;17.83;;
68614;SDS011;55593;51.994;5.882;2024-02-26T09:46:21;30.50;;;16.95;;
68614;SDS011;55593;51.994;5.882;2024-02-26T09:48:51;26.88;;;15.90;;
68614;SDS011;55593;51.994;5.882;2024-02-26T09:51:21;28.27;;;15.63;;
68614;SDS011;55593;51.994;5.882;2024-02-26T09:53:52;30.10;;;15.60;;
68614;SDS011;55593;51.994;5.882;2024-02-26T09:56:21;26.35;;;15.90;;
68614;SDS011;55593;51.994;5.882;2024-02-26T09:58:53;26.80;;;15.35;;
68614;SDS011;55593;51.994;5.882;2024-02-26T10:01:23;29.60;;;16.35;;
68614;SDS011;55593;51.994;5.882;2024-02-26T10:03:55;27.25;;;15.52;;
68614;SDS011;55593;51.994;5.882;2024-02-26T10:06:25;24.35;;;15.23;;
68614;SDS011;55593;51.994;5.882;2024-02-26T10:08:55;25.42;;;14.73;;
68614;SDS011;55593;51.994;5.882;2024-02-26T10:11:24;26.48;;;15.93;;
68614;SDS011;55593;51.994;5.882;2024-02-26T10:13:56;26.50;;;15.95;;
68614;SDS011;55593;51.994;5.882;2024-02-26T10:16:25;23.98;;;14.77;;
68614;SDS011;55593;51.994;5.882;2024-02-26T10:18:55;24.45;;;15.10;;
68614;SDS011;55593;51.994;5.882;2024-02-26T10:21:24;24.90;;;14.45;;
68614;SDS011;55593;51.994;5.882;2024-02-26T10:23:53;25.63;;;15.73;;
68614;SDS011;55593;51.994;5.882;2024-02-26T10:26:22;24.70;;;15.07;;
68614;SDS011;55593;51.994;5.882;2024-02-26T10:28:52;22.77;;;15.23;;
68614;SDS011;55593;51.994;5.882;2024-02-26T10:31:23;21.75;;;13.85;;
68614;SDS011;55593;51.994;5.882;2024-02-26T10:33:54;22.60;;;14.35;;
68614;SDS011;55593;51.994;5.882;2024-02-26T10:36:24;21.95;;;13.65;;
68614;SDS011;55593;51.994;5.882;2024-02-26T10:38:54;21.83;;;13.13;;
68614;SDS011;55593;51.994;5.882;2024-02-26T10:41:24;22.58;;;14.05;;
68614;SDS011;55593;51.994;5.882;2024-02-26T10:43:53;21.60;;;13.95;;
68614;SDS011;55593;51.994;5.882;2024-02-26T10:46:25;22.63;;;15.05;;
68614;SDS011;55593;51.994;5.882;2024-02-26T10:48:54;20.40;;;13.75;;
68614;SDS011;55593;51.994;5.882;2024-02-26T10:51:25;23.00;;;14.05;;
68614;SDS011;55593;51.994;5.882;2024-02-26T10:53:55;26.42;;;15.20;;
68614;SDS011;55593;51.994;5.882;2024-02-26T10:56:28;20.40;;;13.55;;
68614;SDS011;55593;51.994;5.882;2024-02-26T10:58:58;22.42;;;13.90;;
68614;SDS011;55593;51.994;5.882;2024-02-26T11:01:30;20.38;;;13.52;;
68614;SDS011;55593;51.994;5.882;2024-02-26T11:03:59;23.15;;;14.23;;
68614;SDS011;55593;51.994;5.882;2024-02-26T11:06:30;25.50;;;15.10;;
68614;SDS011;55593;51.994;5.882;2024-02-26T11:09:00;26.10;;;14.35;;
68614;SDS011;55593;51.994;5.882;2024-02-26T11:11:31;19.80;;;12.93;;
68614;SDS011;55593;51.994;5.882;2024-02-26T11:14:01;24.45;;;14.30;;
68614;SDS011;55593;51.994;5.882;2024-02-26T11:16:34;19.30;;;13.68;;
68614;SDS011;55593;51.994;5.882;2024-02-26T11:19:04;23.83;;;15.07;;
68614;SDS011;55593;51.994;5.882;2024-02-26T11:21:35;22.13;;;13.40;;
68614;SDS011;55593;51.994;5.882;2024-02-26T11:24:08;22.55;;;14.45;;
68614;SDS011;55593;51.994;5.882;2024-02-26T11:26:39;23.40;;;14.95;;
68614;SDS011;55593;51.994;5.882;2024-02-26T11:29:11;24.52;;;14.02;;
68614;SDS011;55593;51.994;5.882;2024-02-26T11:31:44;25.73;;;16.13;;
68614;SDS011;55593;51.994;5.882;2024-02-26T11:34:13;22.30;;;14.52;;
68614;SDS011;55593;51.994;5.882;2024-02-26T11:36:42;24.95;;;13.43;;
68614;SDS011;55593;51.994;5.882;2024-02-26T11:39:11;26.70;;;16.05;;
68614;SDS011;55593;51.994;5.882;2024-02-26T11:41:42;23.48;;;14.73;;
68614;SDS011;55593;51.994;5.882;2024-02-26T11:44:11;22.85;;;14.25;;
68614;SDS011;55593;51.994;5.882;2024-02-26T11:46:41;20.92;;;12.63;;
68614;SDS011;55593;51.994;5.882;2024-02-26T11:49:30;22.05;;;13.60;;
68614;SDS011;55593;51.994;5.882;2024-02-26T11:52:02;18.02;;;12.10;;
68614;SDS011;55593;51.994;5.882;2024-02-26T11:54:43;20.40;;;12.77;;
68614;SDS011;55593;51.994;5.882;2024-02-26T11:57:23;24.48;;;14.38;;
68614;SDS011;55593;51.994;5.882;2024-02-26T11:59:56;22.92;;;12.75;;
68614;SDS011;55593;51.994;5.882;2024-02-26T12:02:41;23.23;;;12.77;;
68614;SDS011;55593;51.994;5.882;2024-02-26T12:05:13;22.90;;;14.02;;
68614;SDS011;55593;51.994;5.882;2024-02-26T12:07:46;21.40;;;13.68;;
68614;SDS011;55593;51.994;5.882;2024-02-26T12:10:24;25.67;;;12.32;;
68614;SDS011;55593;51.994;5.882;2024-02-26T12:12:55;20.20;;;13.35;;
68614;SDS011;55593;51.994;5.882;2024-02-26T12:15:31;21.63;;;13.30;;
68614;SDS011;55593;51.994;5.882;2024-02-26T12:18:04;20.95;;;12.30;;
68614;SDS011;55593;51.994;5.882;2024-02-26T12:20:35;23.13;;;14.07;;
68614;SDS011;55593;51.994;5.882;2024-02-26T12:23:05;19.50;;;12.05;;
68614;SDS011;55593;51.994;5.882;2024-02-26T12:25:34;22.25;;;13.30;;
68614;SDS011;55593;51.994;5.882;2024-02-26T12:28:03;18.42;;;11.05;;
68614;SDS011;55593;51.994;5.882;2024-02-26T12:30:33;19.40;;;12.32;;
68614;SDS011;55593;51.994;5.882;2024-02-26T12:33:05;19.35;;;12.52;;
68614;SDS011;55593;51.994;5.882;2024-02-26T12:35:34;16.70;;;11.18;;
68614;SDS011;55593;51.994;5.882;2024-02-26T12:38:04;16.80;;;10.25;;
68614;SDS011;55593;51.994;5.882;2024-02-26T12:40:33;17.98;;;10.52;;
68614;SDS011;55593;51.994;5.882;2024-02-26T12:43:02;19.35;;;12.43;;
68614;SDS011;55593;51.994;5.882;2024-02-26T12:45:32;18.75;;;11.73;;
68614;SDS011;55593;51.994;5.882;2024-02-26T12:48:01;19.25;;;11.32;;
68614;SDS011;55593;51.994;5.882;2024-02-26T12:50:33;17.02;;;10.90;;
68614;SDS011;55593;51.994;5.882;2024-02-26T12:53:03;17.75;;;10.90;;
68614;SDS011;55593;51.994;5.882;2024-02-26T12:55:32;18.40;;;11.38;;
68614;SDS011;55593;51.994;5.882;2024-02-26T12:58:05;19.10;;;11.23;;
68614;SDS011;55593;51.994;5.882;2024-02-26T13:00:34;19.45;;;11.77;;
68614;SDS011;55593;51.994;5.882;2024-02-26T13:03:04;20.08;;;11.15;;
68614;SDS011;55593;51.994;5.882;2024-02-26T13:05:36;18.63;;;11.93;;
68614;SDS011;55593;51.994;5.882;2024-02-26T13:08:06;14.63;;;9.55;;
68614;SDS011;55593;51.994;5.882;2024-02-26T13:10:35;15.90;;;10.70;;
68614;SDS011;55593;51.994;5.882;2024-02-26T13:13:05;16.58;;;10.52;;
68614;SDS011;55593;51.994;5.882;2024-02-26T13:15:34;14.45;;;10.30;;
68614;SDS011;55593;51.994;5.882;2024-02-26T13:18:09;16.08;;;11.23;;
68614;SDS011;55593;51.994;5.882;2024-02-26T13:20:41;16.15;;;10.75;;
68614;SDS011;55593;51.994;5.882;2024-02-26T13:23:11;17.25;;;10.68;;
68614;SDS011;55593;51.994;5.882;2024-02-26T13:25:40;18.35;;;11.68;;
68614;SDS011;55593;51.994;5.882;2024-02-26T13:28:15;15.63;;;11.15;;
68614;SDS011;55593;51.994;5.882;2024-02-26T13:30:49;16.65;;;10.77;;
68614;SDS011;55593;51.994;5.882;2024-02-26T13:33:22;17.85;;;11.52;;
68614;SDS011;55593;51.994;5.882;2024-02-26T13:35:54;16.88;;;10.95;;
68614;SDS011;55593;51.994;5.882;2024-02-26T13:38:24;15.60;;;10.65;;
68614;SDS011;55593;51.994;5.882;2024-02-26T13:40:53;15.02;;;10.32;;
68614;SDS011;55593;51.994;5.882;2024-02-26T13:43:23;15.45;;;10.82;;
68614;SDS011;55593;51.994;5.882;2024-02-26T13:45:52;19.52;;;11.88;;
68614;SDS011;55593;51.994;5.882;2024-02-26T13:48:22;16.15;;;10.77;;
68614;SDS011;55593;51.994;5.882;2024-02-26T13:50:54;16.02;;;11.00;;
68614;SDS011;55593;51.994;5.882;2024-02-26T13:53:23;18.88;;;11.75;;
68614;SDS011;55593;51.994;5.882;2024-02-26T13:55:52;18.15;;;11.35;;
68614;SDS011;55593;51.994;5.882;2024-02-26T13:58:23;16.98;;;11.70;;
68614;SDS011;55593;51.994;5.882;2024-02-26T14:00:53;14.38;;;10.45;;
68614;SDS011;55593;51.994;5.882;2024-02-26T14:03:22;16.13;;;11.05;;
68614;SDS011;55593;51.994;5.882;2024-02-26T14:05:54;15.30;;;9.75;;
68614;SDS011;55593;51.994;5.882;2024-02-26T14:08:24;16.10;;;11.80;;
68614;SDS011;55593;51.994;5.882;2024-02-26T14:10:53;16.15;;;11.40;;
68614;SDS011;55593;51.994;5.882;2024-02-26T14:13:22;17.45;;;11.80;;
68614;SDS011;55593;51.994;5.882;2024-02-26T14:15:51;16.38;;;11.63;;
68614;SDS011;55593;51.994;5.882;2024-02-26T14:18:20;16.08;;;11.18;;
68614;SDS011;55593;51.994;5.882;2024-02-26T14:20:50;15.68;;;11.20;;
68614;SDS011;55593;51.994;5.882;2024-02-26T14:23:21;18.60;;;12.00;;
68614;SDS011;55593;51.994;5.882;2024-02-26T14:25:51;14.35;;;10.85;;
68614;SDS011;55593;51.994;5.882;2024-02-26T14:28:20;15.48;;;10.65;;
68614;SDS011;55593;51.994;5.882;2024-02-26T14:30:50;17.85;;;10.43;;
68614;SDS011;55593;51.994;5.882;2024-02-26T14:33:19;15.88;;;11.27;;
68614;SDS011;55593;51.994;5.882;2024-02-26T14:35:48;15.10;;;10.70;;
68614;SDS011;55593;51.994;5.882;2024-02-26T14:38:17;17.30;;;11.90;;
68614;SDS011;55593;51.994;5.882;2024-02-26T14:40:49;16.50;;;10.88;;
68614;SDS011;55593;51.994;5.882;2024-02-26T14:43:18;15.85;;;9.90;;
68614;SDS011;55593;51.994;5.882;2024-02-26T14:45:48;14.65;;;9.68;;
68614;SDS011;55593;51.994;5.882;2024-02-26T14:48:17;15.43;;;11.18;;
68614;SDS011;55593;51.994;5.882;2024-02-26T14:50:46;14.25;;;10.48;;